createdAt,value
2023-05-03T00:04:01.446Z,3.85
2023-05-03T00:10:02.176Z,4.72
2023-05-03T00:12:48.249Z,3.92
2023-05-03T00:15:34.398Z,5.00
2023-05-03T00:18:20.650Z,4.88
2023-05-03T00:24:19.698Z,4.95
2023-05-03T00:30:30.103Z,4.18
2023-05-03T00:33:22.214Z,3.90
2023-05-03T00:36:15.543Z,3.65
2023-05-03T00:39:09.020Z,4.43
2023-05-03T00:42:10.359Z,5.10
2023-05-03T00:45:06.025Z,5.25
2023-05-03T00:47:59.757Z,5.45
2023-05-03T00:50:54.275Z,4.85
2023-05-03T00:53:47.690Z,5.20
2023-05-03T00:56:48.301Z,5.88
2023-05-03T00:59:44.465Z,5.50
2023-05-03T01:02:37.440Z,4.85
2023-05-03T01:08:59.070Z,5.53
2023-05-03T01:11:57.848Z,5.18
2023-05-03T01:14:58.085Z,5.18
2023-05-03T01:17:52.562Z,4.53
2023-05-03T01:20:48.190Z,5.57
2023-05-03T01:23:44.583Z,5.33
2023-05-03T01:27:06.639Z,6.03
2023-05-03T01:30:01.087Z,6.18
2023-05-03T01:33:00.299Z,5.80
2023-05-03T01:39:13.672Z,4.97
2023-05-03T01:45:16.631Z,6.60
2023-05-03T01:48:15.454Z,6.22
2023-05-03T01:51:08.422Z,4.97
2023-05-03T01:54:01.366Z,4.25
2023-05-03T01:56:56.362Z,3.78
2023-05-03T01:59:49.305Z,4.95
2023-05-03T02:02:43.541Z,5.60
2023-05-03T02:05:38.329Z,5.85
2023-05-03T02:08:31.495Z,6.90
2023-05-03T02:11:24.522Z,5.97
2023-05-03T02:14:17.433Z,7.43
2023-05-03T02:20:22.576Z,7.63
2023-05-03T02:23:15.307Z,7.32
2023-05-03T02:26:08.858Z,6.85
2023-05-03T02:29:01.457Z,5.55
2023-05-03T02:35:10.203Z,4.32
2023-05-03T02:41:21.248Z,6.22
2023-05-03T02:44:14.617Z,6.00
2023-05-03T02:47:07.437Z,6.00
2023-05-03T02:50:01.334Z,6.80
2023-05-03T02:53:14.432Z,5.53
2023-05-03T02:56:04.128Z,5.75
2023-05-03T02:58:58.504Z,5.32
2023-05-03T03:01:51.467Z,5.35
2023-05-03T03:04:50.411Z,4.55
2023-05-03T03:07:43.235Z,4.80
2023-05-03T03:10:52.374Z,5.25
2023-05-03T03:13:43.215Z,5.15
2023-05-03T03:20:06.071Z,8.02
2023-05-03T03:26:06.203Z,6.15
2023-05-03T03:28:59.349Z,6.05
2023-05-03T03:31:52.718Z,7.30
2023-05-03T03:34:45.507Z,7.22
2023-05-03T03:37:40.014Z,7.20
2023-05-03T03:43:45.689Z,9.13
2023-05-03T03:49:59.788Z,6.68
2023-05-03T04:02:19.716Z,7.63
2023-05-03T04:05:12.629Z,8.98
2023-05-03T04:07:59.485Z,8.32
2023-05-03T04:13:49.374Z,9.32
2023-05-03T04:16:42.569Z,8.55
2023-05-03T04:19:35.500Z,8.98
2023-05-03T04:22:30.969Z,9.02
2023-05-03T04:25:25.514Z,9.25
2023-05-03T04:28:25.685Z,9.13
2023-05-03T04:31:21.069Z,9.45
2023-05-03T04:34:17.691Z,8.85
2023-05-03T04:37:13.906Z,11.27
2023-05-03T04:40:09.480Z,11.30
2023-05-03T04:43:05.283Z,12.40
2023-05-03T04:46:00.767Z,11.18
2023-05-03T04:48:54.392Z,11.32
2023-05-03T04:51:47.426Z,9.80
2023-05-03T04:54:55.713Z,10.18
2023-05-03T04:57:47.779Z,10.40
2023-05-03T05:04:27.553Z,11.55
2023-05-03T05:07:20.636Z,10.07
2023-05-03T05:10:14.649Z,9.95
2023-05-03T05:13:08.354Z,10.98
2023-05-03T05:16:01.565Z,12.45
2023-05-03T05:18:54.450Z,7.80
2023-05-03T05:22:22.124Z,5.82
2023-05-03T05:25:21.729Z,4.68
2023-05-03T05:28:14.271Z,3.42
2023-05-03T05:31:07.721Z,3.63
2023-05-03T05:34:01.335Z,2.80
2023-05-03T05:36:51.461Z,2.40
2023-05-03T05:39:44.612Z,1.75
2023-05-03T05:42:39.507Z,2.53
2023-05-03T05:45:34.477Z,3.13
2023-05-03T05:51:49.594Z,4.13
2023-05-03T05:58:09.586Z,4.97
2023-05-03T06:01:08.387Z,4.47
2023-05-03T06:03:57.987Z,4.55
2023-05-03T06:06:52.932Z,4.15
2023-05-03T06:12:57.782Z,3.88
2023-05-03T06:19:06.720Z,3.20
2023-05-03T06:21:59.464Z,3.45
2023-05-03T06:24:53.764Z,2.88
2023-05-03T06:31:01.350Z,5.18
2023-05-03T06:33:55.502Z,2.85
2023-05-03T06:39:59.368Z,2.70
2023-05-03T06:46:20.364Z,2.97
2023-05-03T06:49:13.671Z,2.55
2023-05-03T06:52:07.808Z,2.88
2023-05-03T06:55:02.728Z,2.75
2023-05-03T06:57:55.409Z,2.10
2023-05-03T07:00:48.384Z,2.47
2023-05-03T07:07:07.723Z,2.08
2023-05-03T07:10:00.094Z,1.85
2023-05-03T07:12:52.528Z,2.10
2023-05-03T07:18:57.705Z,1.67
2023-05-03T07:21:50.922Z,1.73
2023-05-03T07:24:45.069Z,1.40
2023-05-03T07:27:37.322Z,1.77
2023-05-03T07:30:30.700Z,1.40
2023-05-03T07:33:23.813Z,1.63
2023-05-03T07:36:16.161Z,2.03
2023-05-03T07:39:08.715Z,1.70
2023-05-03T07:42:03.155Z,1.85
2023-05-03T07:45:01.164Z,1.33
2023-05-03T07:47:53.555Z,1.98
2023-05-03T07:50:46.598Z,1.73
2023-05-03T07:57:17.329Z,1.30
2023-05-03T08:00:47.638Z,1.97
2023-05-03T08:03:40.518Z,1.10
2023-05-03T08:06:35.334Z,1.23
2023-05-03T08:09:28.380Z,1.33
2023-05-03T08:12:22.810Z,1.90
2023-05-03T08:15:15.722Z,1.40
2023-05-03T08:18:08.617Z,1.40
2023-05-03T08:21:01.751Z,1.17
2023-05-03T08:27:31.709Z,1.75
2023-05-03T08:30:25.383Z,1.80
2023-05-03T08:33:18.664Z,1.60
2023-05-03T08:36:11.308Z,1.55
2023-05-03T08:39:06.317Z,1.85
2023-05-03T08:42:00.264Z,2.00
2023-05-03T08:48:14.143Z,1.80
2023-05-03T08:54:31.495Z,1.77
2023-05-03T08:57:25.147Z,2.35
2023-05-03T09:00:19.158Z,2.05
2023-05-03T09:03:11.546Z,2.00
2023-05-03T09:06:32.986Z,1.80
2023-05-03T09:09:32.354Z,1.88
2023-05-03T09:12:50.664Z,1.85
2023-05-03T09:15:45.204Z,1.90
2023-05-03T09:18:37.734Z,1.90
2023-05-03T09:25:09.259Z,1.90
2023-05-03T09:28:02.590Z,2.22
2023-05-03T09:31:05.513Z,2.03
2023-05-03T09:33:58.722Z,2.25
2023-05-03T09:36:55.229Z,1.83
2023-05-03T09:39:48.657Z,2.05
2023-05-03T09:42:47.270Z,1.40
2023-05-03T09:45:40.043Z,2.05
2023-05-03T09:48:32.544Z,2.00
2023-05-03T09:51:26.224Z,1.95
2023-05-03T09:54:18.716Z,2.35
2023-05-03T09:57:11.595Z,1.80
2023-05-03T10:00:06.748Z,1.63
2023-05-03T10:03:08.419Z,2.42
2023-05-03T10:06:04.204Z,1.52
2023-05-03T10:09:05.695Z,1.50
2023-05-03T10:12:01.739Z,2.05
2023-05-03T10:14:56.004Z,2.10
2023-05-03T10:17:52.168Z,2.33
2023-05-03T10:21:21.726Z,1.70
2023-05-03T10:24:15.959Z,2.05
2023-05-03T10:27:08.971Z,1.80
2023-05-03T10:30:01.787Z,1.95
2023-05-03T10:32:47.924Z,1.80
2023-05-03T10:35:35.504Z,2.33
2023-05-03T10:38:22.955Z,2.03
2023-05-03T10:41:08.871Z,2.10
2023-05-03T10:43:55.112Z,1.70
2023-05-03T10:46:41.110Z,2.00
2023-05-03T10:49:27.229Z,1.80
2023-05-03T10:52:49.964Z,1.98
2023-05-03T10:55:36.361Z,1.90
2023-05-03T10:58:29.133Z,2.10
2023-05-03T11:01:16.958Z,2.20
2023-05-03T11:07:10.284Z,1.90
2023-05-03T11:10:18.075Z,2.22
2023-05-03T11:13:10.362Z,2.45
2023-05-03T11:16:04.165Z,2.40
2023-05-03T11:18:57.118Z,2.22
2023-05-03T11:21:49.374Z,2.28
2023-05-03T11:24:42.715Z,2.10
2023-05-03T11:27:42.042Z,2.20
2023-05-03T11:30:35.878Z,2.60
2023-05-03T11:36:45.756Z,2.13
2023-05-03T11:39:39.016Z,2.88
2023-05-03T11:42:31.736Z,2.72
2023-05-03T11:45:27.007Z,2.55
2023-05-03T11:48:19.710Z,2.70
2023-05-03T11:51:13.664Z,2.55
2023-05-03T11:57:42.472Z,2.72
2023-05-03T12:01:12.702Z,2.53
2023-05-03T12:04:07.319Z,2.60
2023-05-03T12:07:29.649Z,2.47
2023-05-03T12:10:26.187Z,3.10
2023-05-03T12:16:49.402Z,2.60
2023-05-03T12:23:04.683Z,2.95
2023-05-03T12:29:14.261Z,2.53
2023-05-03T12:32:07.574Z,2.90
2023-05-03T12:35:02.657Z,3.22
2023-05-03T12:37:55.948Z,2.50
2023-05-03T12:40:49.863Z,2.28
2023-05-03T12:43:43.625Z,2.15
2023-05-03T12:46:37.415Z,2.17
2023-05-03T12:49:30.402Z,2.10
2023-05-03T12:52:36.500Z,2.67
2023-05-03T12:55:43.882Z,2.15
2023-05-03T12:59:05.614Z,2.15
2023-05-03T13:07:43.900Z,2.78
2023-05-03T13:10:36.910Z,2.53
2023-05-03T13:13:29.140Z,3.45
2023-05-03T13:16:24.208Z,2.10
2023-05-03T13:19:32.583Z,3.50
2023-05-03T13:22:23.973Z,2.30
2023-05-03T13:25:16.842Z,2.28
2023-05-03T13:31:24.062Z,3.22
2023-05-03T13:34:16.791Z,3.08
2023-05-03T13:37:09.456Z,3.00
2023-05-03T13:40:02.903Z,2.38
2023-05-03T13:42:55.652Z,2.33
2023-05-03T13:45:48.412Z,3.05
2023-05-03T13:48:46.109Z,2.42
2023-05-03T13:51:38.736Z,2.28
2023-05-03T13:57:47.782Z,2.22
2023-05-03T14:00:40.510Z,2.63
2023-05-03T14:03:27.609Z,2.80
2023-05-03T14:06:22.990Z,2.70
2023-05-03T14:09:15.851Z,3.05
2023-05-03T14:12:09.023Z,2.70
2023-05-03T14:15:03.312Z,2.30
2023-05-03T14:17:58.336Z,2.25
2023-05-03T14:22:02.767Z,2.30
2023-05-03T14:24:55.859Z,2.78
2023-05-03T14:27:48.423Z,2.40
2023-05-03T14:30:37.037Z,3.00
2023-05-03T14:33:29.718Z,3.35
2023-05-03T14:36:59.925Z,2.30
2023-05-03T14:39:53.869Z,2.50
2023-05-03T14:43:02.751Z,2.57
2023-05-03T14:45:53.480Z,2.42
2023-05-03T14:48:47.253Z,2.40
2023-05-03T14:51:40.999Z,2.55
2023-05-03T14:54:34.785Z,2.35
2023-05-03T14:57:31.376Z,2.13
2023-05-03T15:00:25.541Z,3.15
2023-05-03T15:03:18.741Z,2.95
2023-05-03T15:06:11.474Z,2.40
2023-05-03T15:09:05.009Z,2.35
2023-05-03T15:11:57.806Z,2.97
2023-05-03T15:14:52.233Z,3.30
2023-05-03T15:17:45.335Z,2.83
2023-05-03T15:20:37.931Z,2.78
2023-05-03T15:23:30.951Z,2.58
2023-05-03T15:26:48.989Z,3.10
2023-05-03T15:29:41.562Z,2.72
2023-05-03T15:32:36.058Z,2.58
2023-05-03T15:35:28.770Z,2.60
2023-05-03T15:38:21.612Z,2.17
2023-05-03T15:41:14.642Z,2.20
2023-05-03T15:47:19.918Z,2.75
2023-05-03T15:56:22.655Z,1.90
2023-05-03T15:59:15.999Z,2.35
2023-05-03T16:02:09.022Z,2.40
2023-05-03T16:05:04.823Z,2.08
2023-05-03T16:07:57.667Z,2.42
2023-05-03T16:10:52.314Z,2.30
2023-05-03T16:16:57.116Z,2.80
2023-05-03T16:19:49.520Z,2.72
2023-05-03T16:22:52.922Z,2.50
2023-05-03T16:25:45.963Z,2.30
2023-05-03T16:28:40.214Z,2.70
2023-05-03T16:31:33.172Z,3.40
2023-05-03T16:34:26.253Z,2.13
2023-05-03T16:37:19.051Z,2.53
2023-05-03T16:43:24.044Z,2.88
2023-05-03T16:49:35.253Z,3.60
2023-05-03T16:55:39.980Z,2.47
2023-05-03T16:58:32.614Z,3.10
2023-05-03T17:01:25.111Z,2.70
2023-05-03T17:04:17.877Z,2.90
2023-05-03T17:07:12.176Z,2.53
2023-05-03T17:10:06.304Z,3.40
2023-05-03T17:16:46.636Z,3.58
2023-05-03T17:22:57.617Z,3.10
2023-05-03T17:29:02.129Z,4.20
2023-05-03T17:31:55.907Z,3.50
2023-05-03T17:34:54.811Z,4.07
2023-05-03T17:37:47.769Z,4.00
2023-05-03T17:43:55.132Z,3.83
2023-05-03T17:46:47.758Z,4.68
2023-05-03T17:49:40.504Z,3.53
2023-05-03T17:52:33.555Z,3.47
2023-05-03T17:55:27.324Z,3.38
2023-05-03T17:58:19.808Z,5.57
2023-05-03T18:01:15.704Z,10.98
2023-05-03T18:04:08.900Z,24.67
2023-05-03T18:07:27.695Z,5.30
2023-05-03T18:10:20.589Z,4.28
2023-05-03T18:13:13.600Z,3.85
2023-05-03T18:16:08.417Z,3.60
2023-05-03T18:19:03.659Z,3.47
2023-05-03T18:21:56.649Z,3.10
2023-05-03T18:24:55.058Z,3.33
2023-05-03T18:27:47.622Z,3.58
2023-05-03T18:30:40.693Z,3.75
2023-05-03T18:33:33.764Z,4.10
2023-05-03T18:36:27.952Z,5.00
2023-05-03T18:39:21.331Z,3.20
2023-05-03T18:42:45.347Z,3.40
2023-05-03T18:45:38.270Z,2.85
2023-05-03T18:48:30.379Z,3.33
2023-05-03T18:51:23.038Z,3.53
2023-05-03T18:54:17.746Z,3.90
2023-05-03T18:57:11.547Z,4.55
2023-05-03T19:00:06.352Z,3.65
2023-05-03T19:02:58.359Z,4.07
2023-05-03T19:09:25.047Z,4.53
2023-05-03T19:12:17.730Z,4.07
2023-05-03T19:15:11.813Z,3.97
2023-05-03T19:18:04.778Z,3.80
2023-05-03T19:20:58.010Z,4.13
2023-05-03T19:23:51.272Z,3.67
2023-05-03T19:26:45.233Z,4.13
2023-05-03T19:29:37.597Z,3.03
2023-05-03T19:32:30.764Z,3.25
2023-05-03T19:35:23.592Z,3.63
2023-05-03T19:41:28.943Z,3.15
2023-05-03T19:44:23.064Z,3.35
2023-05-03T19:47:15.614Z,3.83
2023-05-03T19:50:09.246Z,5.43
2023-05-03T19:53:01.682Z,4.32
2023-05-03T19:55:56.439Z,3.33
2023-05-03T20:02:20.575Z,3.40
2023-05-03T20:05:43.917Z,4.20
2023-05-03T20:08:36.893Z,4.07
2023-05-03T20:14:41.968Z,4.07
2023-05-03T20:17:36.054Z,4.35
2023-05-03T20:20:25.987Z,5.20
2023-05-03T20:23:18.885Z,5.40
2023-05-03T20:26:11.622Z,5.97
2023-05-03T20:29:05.201Z,5.38
2023-05-03T20:31:57.734Z,4.88
2023-05-03T20:34:51.754Z,4.72
2023-05-03T20:37:45.381Z,6.18
2023-05-03T20:40:37.794Z,5.63
2023-05-03T20:43:30.731Z,5.65
2023-05-03T20:46:48.817Z,5.07
2023-05-03T20:49:42.131Z,5.47
2023-05-03T20:52:36.253Z,5.78
2023-05-03T20:55:28.504Z,5.07
2023-05-03T20:58:21.763Z,4.97
2023-05-03T21:04:27.220Z,5.45
2023-05-03T21:10:37.275Z,4.82
2023-05-03T21:13:29.565Z,6.43
2023-05-03T21:16:23.257Z,5.45
2023-05-03T21:19:15.980Z,6.18
2023-05-03T21:22:08.945Z,5.18
2023-05-03T21:25:01.571Z,5.07
2023-05-03T21:28:12.024Z,4.97
2023-05-03T21:31:02.666Z,4.75
2023-05-03T21:33:55.842Z,4.15
2023-05-03T21:36:49.099Z,5.15
2023-05-03T21:39:45.284Z,5.35
2023-05-03T21:42:43.875Z,5.20
2023-05-03T21:45:36.589Z,5.03
2023-05-03T21:48:31.641Z,5.15
2023-05-03T21:51:25.733Z,4.27
2023-05-03T21:54:22.146Z,4.60
2023-05-03T21:57:14.624Z,4.40
2023-05-03T22:03:19.940Z,5.28
2023-05-03T22:06:13.874Z,6.60
2023-05-03T22:09:08.591Z,5.50
2023-05-03T22:12:08.469Z,4.60
2023-05-03T22:15:13.049Z,5.70
2023-05-03T22:21:23.226Z,6.00
2023-05-03T22:24:15.540Z,5.28
2023-05-03T22:27:03.604Z,6.25
2023-05-03T22:29:56.717Z,6.15
2023-05-03T22:32:49.679Z,6.00
2023-05-03T22:35:42.777Z,5.22
2023-05-03T22:38:36.821Z,6.35
2023-05-03T22:41:29.681Z,5.03
2023-05-03T22:44:22.553Z,4.95
2023-05-03T22:47:15.398Z,4.90
2023-05-03T22:50:08.508Z,5.15
2023-05-03T22:53:01.435Z,5.32
2023-05-03T22:55:58.579Z,3.88
2023-05-03T22:58:51.976Z,3.35
2023-05-03T23:01:45.949Z,4.43
2023-05-03T23:04:38.898Z,3.30
2023-05-03T23:07:31.726Z,5.55
2023-05-03T23:10:24.805Z,4.38
2023-05-03T23:13:19.252Z,5.57
2023-05-03T23:19:57.423Z,4.72
2023-05-03T23:23:26.851Z,5.38
2023-05-03T23:26:19.886Z,6.45
2023-05-03T23:29:29.919Z,5.80
2023-05-03T23:32:21.071Z,5.53
2023-05-03T23:35:15.368Z,7.45
2023-05-03T23:38:01.333Z,6.45
2023-05-03T23:40:47.820Z,8.68
2023-05-03T23:43:33.874Z,9.77
2023-05-03T23:46:19.963Z,8.82
2023-05-03T23:49:07.445Z,9.48
2023-05-03T23:51:53.658Z,9.88
2023-05-03T23:54:39.644Z,8.85
2023-05-03T23:57:25.768Z,7.47
